sensor_id;sensor_type;location;lat;lon;timestamp;pressure;altitude;pressure_sealevel;temperature;humidity
29941;BME280;16801;53.562;10.038;2022-09-03T00:01:47;101747.81;;;17.50;51.07
29941;BME280;16801;53.562;10.038;2022-09-03T00:05:17;101740.34;;;17.52;51.29
29941;BME280;16801;53.562;10.038;2022-09-03T00:08:43;101738.19;;;17.46;51.13
29941;BME280;16801;53.562;10.038;2022-09-03T00:12:09;101739.47;;;17.51;51.66
29941;BME280;16801;53.562;10.038;2022-09-03T00:15:32;101737.88;;;17.49;51.43
29941;BME280;16801;53.562;10.038;2022-09-03T00:18:58;101741.56;;;17.40;51.51
29941;BME280;16801;53.562;10.038;2022-09-03T00:22:24;101740.56;;;17.41;51.76
29941;BME280;16801;53.562;10.038;2022-09-03T00:25:50;101734.88;;;17.34;52.12
29941;BME280;16801;53.562;10.038;2022-09-03T00:29:15;101739.47;;;17.34;51.85
29941;BME280;16801;53.562;10.038;2022-09-03T00:32:41;101736.53;;;17.27;52.17
29941;BME280;16801;53.562;10.038;2022-09-03T00:36:12;101742.13;;;17.26;52.20
29941;BME280;16801;53.562;10.038;2022-09-03T00:39:35;101749.31;;;17.27;52.36
29941;BME280;16801;53.562;10.038;2022-09-03T00:43:00;101749.78;;;17.22;52.38
29941;BME280;16801;53.562;10.038;2022-09-03T00:46:30;101740.22;;;17.18;52.35
29941;BME280;16801;53.562;10.038;2022-09-03T00:50:02;101741.84;;;17.11;52.61
29941;BME280;16801;53.562;10.038;2022-09-03T00:53:34;101737.31;;;17.02;52.62
29941;BME280;16801;53.562;10.038;2022-09-03T00:57:17;101733.00;;;16.92;53.40
29941;BME280;16801;53.562;10.038;2022-09-03T01:00:44;101740.06;;;17.02;52.98
29941;BME280;16801;53.562;10.038;2022-09-03T01:04:29;101739.53;;;16.99;52.86
29941;BME280;16801;53.562;10.038;2022-09-03T01:08:00;101743.97;;;17.00;52.88
29941;BME280;16801;53.562;10.038;2022-09-03T01:11:31;101743.88;;;17.09;52.71
29941;BME280;16801;53.562;10.038;2022-09-03T01:15:04;101745.72;;;17.09;52.83
29941;BME280;16801;53.562;10.038;2022-09-03T01:18:32;101750.94;;;17.20;52.05
29941;BME280;16801;53.562;10.038;2022-09-03T01:22:08;101742.59;;;17.21;52.68
29941;BME280;16801;53.562;10.038;2022-09-03T01:25:51;101737.63;;;17.17;52.42
29941;BME280;16801;53.562;10.038;2022-09-03T01:29:21;101736.31;;;17.03;52.94
29941;BME280;16801;53.562;10.038;2022-09-03T01:32:47;101728.16;;;17.03;52.84
29941;BME280;16801;53.562;10.038;2022-09-03T01:36:20;101731.69;;;16.96;53.11
29941;BME280;16801;53.562;10.038;2022-09-03T01:39:52;101725.50;;;16.76;53.16
29941;BME280;16801;53.562;10.038;2022-09-03T01:43:26;101736.25;;;16.77;53.57
29941;BME280;16801;53.562;10.038;2022-09-03T01:46:59;101730.25;;;16.74;53.67
29941;BME280;16801;53.562;10.038;2022-09-03T01:50:32;101734.38;;;16.78;53.70
29941;BME280;16801;53.562;10.038;2022-09-03T01:54:15;101733.16;;;16.72;53.59
29941;BME280;16801;53.562;10.038;2022-09-03T01:57:44;101727.25;;;16.77;53.71
29941;BME280;16801;53.562;10.038;2022-09-03T02:01:13;101724.13;;;16.72;53.64
29941;BME280;16801;53.562;10.038;2022-09-03T02:04:38;101727.13;;;16.69;54.17
29941;BME280;16801;53.562;10.038;2022-09-03T02:08:00;101725.81;;;16.73;54.28
29941;BME280;16801;53.562;10.038;2022-09-03T02:11:22;101726.34;;;16.59;54.41
29941;BME280;16801;53.562;10.038;2022-09-03T02:14:44;101728.78;;;16.62;53.93
29941;BME280;16801;53.562;10.038;2022-09-03T02:18:09;101731.09;;;16.57;54.01
29941;BME280;16801;53.562;10.038;2022-09-03T02:21:37;101735.84;;;16.55;54.31
29941;BME280;16801;53.562;10.038;2022-09-03T02:24:58;101736.59;;;16.47;54.20
29941;BME280;16801;53.562;10.038;2022-09-03T02:28:19;101727.16;;;16.42;54.56
29941;BME280;16801;53.562;10.038;2022-09-03T02:31:42;101728.00;;;16.52;54.53
29941;BME280;16801;53.562;10.038;2022-09-03T02:35:03;101731.75;;;16.41;54.43
29941;BME280;16801;53.562;10.038;2022-09-03T02:38:26;101724.22;;;16.35;54.60
29941;BME280;16801;53.562;10.038;2022-09-03T02:41:50;101716.13;;;16.43;54.08
29941;BME280;16801;53.562;10.038;2022-09-03T02:45:22;101721.06;;;16.30;54.85
29941;BME280;16801;53.562;10.038;2022-09-03T02:48:46;101723.63;;;16.32;54.54
29941;BME280;16801;53.562;10.038;2022-09-03T02:52:08;101723.97;;;16.29;55.08
29941;BME280;16801;53.562;10.038;2022-09-03T02:55:32;101723.38;;;16.25;55.02
29941;BME280;16801;53.562;10.038;2022-09-03T02:58:53;101728.38;;;16.30;54.73
29941;BME280;16801;53.562;10.038;2022-09-03T03:02:14;101724.84;;;16.20;54.83
29941;BME280;16801;53.562;10.038;2022-09-03T03:05:42;101720.44;;;16.19;55.02
29941;BME280;16801;53.562;10.038;2022-09-03T03:09:03;101724.44;;;16.15;55.50
29941;BME280;16801;53.562;10.038;2022-09-03T03:12:25;101723.75;;;16.13;55.25
29941;BME280;16801;53.562;10.038;2022-09-03T03:15:48;101720.91;;;16.05;55.23
29941;BME280;16801;53.562;10.038;2022-09-03T03:19:09;101718.28;;;16.13;55.28
29941;BME280;16801;53.562;10.038;2022-09-03T03:22:30;101719.72;;;16.17;54.71
29941;BME280;16801;53.562;10.038;2022-09-03T03:25:51;101717.06;;;16.07;55.74
29941;BME280;16801;53.562;10.038;2022-09-03T03:29:15;101718.06;;;16.06;55.45
29941;BME280;16801;53.562;10.038;2022-09-03T03:32:38;101725.66;;;16.02;55.73
29941;BME280;16801;53.562;10.038;2022-09-03T03:36:03;101718.41;;;15.93;55.60
29941;BME280;16801;53.562;10.038;2022-09-03T03:39:24;101719.41;;;15.92;55.49
29941;BME280;16801;53.562;10.038;2022-09-03T03:42:45;101721.44;;;15.90;55.51
29941;BME280;16801;53.562;10.038;2022-09-03T03:46:07;101726.41;;;15.95;55.24
29941;BME280;16801;53.562;10.038;2022-09-03T03:49:29;101743.78;;;15.84;56.22
29941;BME280;16801;53.562;10.038;2022-09-03T03:52:50;101739.81;;;15.79;56.40
29941;BME280;16801;53.562;10.038;2022-09-03T03:56:12;101742.63;;;15.87;56.10
29941;BME280;16801;53.562;10.038;2022-09-03T03:59:34;101743.50;;;15.78;56.07
29941;BME280;16801;53.562;10.038;2022-09-03T04:02:58;101744.38;;;15.78;56.10
29941;BME280;16801;53.562;10.038;2022-09-03T04:06:19;101737.53;;;15.74;56.69
29941;BME280;16801;53.562;10.038;2022-09-03T04:09:40;101742.25;;;15.72;56.25
29941;BME280;16801;53.562;10.038;2022-09-03T04:13:01;101741.09;;;15.75;56.23
29941;BME280;16801;53.562;10.038;2022-09-03T04:16:24;101745.56;;;15.66;56.94
29941;BME280;16801;53.562;10.038;2022-09-03T04:19:46;101744.16;;;15.62;56.41
29941;BME280;16801;53.562;10.038;2022-09-03T04:23:08;101736.56;;;15.66;56.51
29941;BME280;16801;53.562;10.038;2022-09-03T04:26:30;101737.84;;;15.52;56.80
29941;BME280;16801;53.562;10.038;2022-09-03T04:29:51;101732.56;;;15.60;56.38
29941;BME280;16801;53.562;10.038;2022-09-03T04:33:12;101740.31;;;15.55;56.65
29941;BME280;16801;53.562;10.038;2022-09-03T04:36:34;101732.25;;;15.63;56.54
29941;BME280;16801;53.562;10.038;2022-09-03T04:39:56;101731.72;;;15.60;56.66
29941;BME280;16801;53.562;10.038;2022-09-03T04:43:17;101738.28;;;15.57;56.57
29941;BME280;16801;53.562;10.038;2022-09-03T04:46:38;101736.03;;;15.43;57.00
29941;BME280;16801;53.562;10.038;2022-09-03T04:49:59;101747.47;;;15.37;56.80
29941;BME280;16801;53.562;10.038;2022-09-03T04:53:21;101741.31;;;15.45;56.97
29941;BME280;16801;53.562;10.038;2022-09-03T04:56:42;101753.47;;;15.41;56.77
29941;BME280;16801;53.562;10.038;2022-09-03T05:00:04;101756.06;;;15.52;56.25
29941;BME280;16801;53.562;10.038;2022-09-03T05:03:29;101757.16;;;15.59;56.62
29941;BME280;16801;53.562;10.038;2022-09-03T05:06:50;101760.47;;;15.53;55.96
29941;BME280;16801;53.562;10.038;2022-09-03T05:10:13;101751.59;;;15.51;56.06
29941;BME280;16801;53.562;10.038;2022-09-03T05:13:38;101762.75;;;15.57;56.08
29941;BME280;16801;53.562;10.038;2022-09-03T05:17:00;101746.16;;;15.60;56.00
29941;BME280;16801;53.562;10.038;2022-09-03T05:20:21;101749.72;;;15.70;55.70
29941;BME280;16801;53.562;10.038;2022-09-03T05:23:43;101747.00;;;15.70;55.89
29941;BME280;16801;53.562;10.038;2022-09-03T05:27:06;101747.38;;;15.75;55.36
29941;BME280;16801;53.562;10.038;2022-09-03T05:30:27;101746.28;;;15.68;55.08
29941;BME280;16801;53.562;10.038;2022-09-03T05:33:50;101736.56;;;15.66;55.61
29941;BME280;16801;53.562;10.038;2022-09-03T05:37:11;101735.69;;;15.65;55.81
29941;BME280;16801;53.562;10.038;2022-09-03T05:40:32;101736.06;;;15.80;54.98
29941;BME280;16801;53.562;10.038;2022-09-03T05:43:55;101746.50;;;15.84;55.17
29941;BME280;16801;53.562;10.038;2022-09-03T05:47:17;101747.38;;;15.75;55.07
29941;BME280;16801;53.562;10.038;2022-09-03T05:50:38;101744.34;;;15.88;54.48
29941;BME280;16801;53.562;10.038;2022-09-03T05:53:59;101746.19;;;15.87;54.91
29941;BME280;16801;53.562;10.038;2022-09-03T05:57:21;101746.31;;;15.95;54.56
29941;BME280;16801;53.562;10.038;2022-09-03T06:00:43;101738.88;;;15.97;54.83
29941;BME280;16801;53.562;10.038;2022-09-03T06:04:05;101757.06;;;15.87;54.60
29941;BME280;16801;53.562;10.038;2022-09-03T06:07:26;101756.28;;;16.05;54.49
29941;BME280;16801;53.562;10.038;2022-09-03T06:10:47;101753.97;;;16.10;54.52
29941;BME280;16801;53.562;10.038;2022-09-03T06:14:10;101754.88;;;16.00;54.71
29941;BME280;16801;53.562;10.038;2022-09-03T06:17:32;101751.19;;;16.19;54.07
29941;BME280;16801;53.562;10.038;2022-09-03T06:20:54;101749.28;;;16.29;53.95
29941;BME280;16801;53.562;10.038;2022-09-03T06:24:16;101745.81;;;16.37;53.44
29941;BME280;16801;53.562;10.038;2022-09-03T06:27:37;101739.59;;;16.44;53.55
29941;BME280;16801;53.562;10.038;2022-09-03T06:30:58;101741.00;;;16.58;53.10
29941;BME280;16801;53.562;10.038;2022-09-03T06:34:21;101752.66;;;16.41;53.23
29941;BME280;16801;53.562;10.038;2022-09-03T06:37:44;101749.78;;;16.52;53.26
29941;BME280;16801;53.562;10.038;2022-09-03T06:41:07;101746.97;;;16.61;53.38
29941;BME280;16801;53.562;10.038;2022-09-03T06:44:28;101757.25;;;16.67;52.77
29941;BME280;16801;53.562;10.038;2022-09-03T06:47:49;101755.41;;;16.68;53.03
29941;BME280;16801;53.562;10.038;2022-09-03T06:51:13;101756.81;;;16.90;52.70
29941;BME280;16801;53.562;10.038;2022-09-03T06:54:34;101765.91;;;16.81;52.47
29941;BME280;16801;53.562;10.038;2022-09-03T06:57:59;101776.25;;;16.95;52.42
29941;BME280;16801;53.562;10.038;2022-09-03T07:01:21;101762.34;;;16.98;52.48
29941;BME280;16801;53.562;10.038;2022-09-03T07:04:44;101761.88;;;16.85;52.46
29941;BME280;16801;53.562;10.038;2022-09-03T07:08:06;101762.78;;;17.11;51.70
29941;BME280;16801;53.562;10.038;2022-09-03T07:11:29;101758.03;;;17.30;51.88
29941;BME280;16801;53.562;10.038;2022-09-03T07:14:52;101754.72;;;17.44;50.96
29941;BME280;16801;53.562;10.038;2022-09-03T07:18:13;101759.16;;;17.45;51.70
29941;BME280;16801;53.562;10.038;2022-09-03T07:21:35;101761.44;;;17.76;50.80
29941;BME280;16801;53.562;10.038;2022-09-03T07:24:58;101762.41;;;17.92;50.54
29941;BME280;16801;53.562;10.038;2022-09-03T07:28:18;101759.63;;;17.84;50.50
29941;BME280;16801;53.562;10.038;2022-09-03T07:31:41;101759.16;;;17.89;50.47
29941;BME280;16801;53.562;10.038;2022-09-03T07:35:03;101757.09;;;17.91;50.60
29941;BME280;16801;53.562;10.038;2022-09-03T07:38:24;101751.44;;;18.18;50.11
29941;BME280;16801;53.562;10.038;2022-09-03T07:41:47;101756.41;;;18.22;50.05
29941;BME280;16801;53.562;10.038;2022-09-03T07:45:09;101760.53;;;18.26;49.74
29941;BME280;16801;53.562;10.038;2022-09-03T07:48:30;101755.13;;;18.43;49.33
29941;BME280;16801;53.562;10.038;2022-09-03T07:51:51;101751.63;;;18.50;49.41
29941;BME280;16801;53.562;10.038;2022-09-03T07:55:13;101748.75;;;18.68;48.57
29941;BME280;16801;53.562;10.038;2022-09-03T07:58:36;101747.88;;;18.59;48.61
29941;BME280;16801;53.562;10.038;2022-09-03T08:01:57;101750.31;;;18.78;48.51
29941;BME280;16801;53.562;10.038;2022-09-03T08:05:19;101759.56;;;18.85;48.04
29941;BME280;16801;53.562;10.038;2022-09-03T08:08:41;101747.25;;;18.81;47.73
29941;BME280;16801;53.562;10.038;2022-09-03T08:12:04;101744.03;;;18.94;47.74
29941;BME280;16801;53.562;10.038;2022-09-03T08:15:26;101741.66;;;19.23;47.57
29941;BME280;16801;53.562;10.038;2022-09-03T08:18:47;101753.09;;;19.43;46.98
29941;BME280;16801;53.562;10.038;2022-09-03T08:22:10;101747.13;;;19.39;46.59
29941;BME280;16801;53.562;10.038;2022-09-03T08:25:31;101745.91;;;19.58;46.60
29941;BME280;16801;53.562;10.038;2022-09-03T08:28:52;101747.94;;;19.72;46.11
29941;BME280;16801;53.562;10.038;2022-09-03T08:32:14;101746.41;;;19.61;46.00
29941;BME280;16801;53.562;10.038;2022-09-03T08:35:35;101740.22;;;19.83;45.80
29941;BME280;16801;53.562;10.038;2022-09-03T08:38:58;101741.84;;;20.09;45.45
29941;BME280;16801;53.562;10.038;2022-09-03T08:42:38;101739.69;;;19.96;45.51
29941;BME280;16801;53.562;10.038;2022-09-03T08:46:02;101744.69;;;19.76;46.07
29941;BME280;16801;53.562;10.038;2022-09-03T08:49:27;101740.78;;;19.31;47.16
29941;BME280;16801;53.562;10.038;2022-09-03T08:52:53;101741.13;;;19.20;47.27
29941;BME280;16801;53.562;10.038;2022-09-03T08:56:20;101740.28;;;19.19;47.32
29941;BME280;16801;53.562;10.038;2022-09-03T08:59:44;101742.84;;;19.61;46.53
29941;BME280;16801;53.562;10.038;2022-09-03T09:03:33;101747.22;;;19.94;45.34
29941;BME280;16801;53.562;10.038;2022-09-03T09:07:05;101736.97;;;20.35;45.06
29941;BME280;16801;53.562;10.038;2022-09-03T09:10:33;101730.00;;;20.63;44.01
29941;BME280;16801;53.562;10.038;2022-09-03T09:14:01;101734.75;;;20.69;43.79
29941;BME280;16801;53.562;10.038;2022-09-03T09:17:33;101733.16;;;20.75;43.86
29941;BME280;16801;53.562;10.038;2022-09-03T09:21:01;101739.03;;;20.94;43.26
29941;BME280;16801;53.562;10.038;2022-09-03T09:24:36;101740.47;;;21.13;42.99
29941;BME280;16801;53.562;10.038;2022-09-03T09:28:00;101726.78;;;21.27;42.16
29941;BME280;16801;53.562;10.038;2022-09-03T09:31:21;101730.31;;;21.36;41.66
29941;BME280;16801;53.562;10.038;2022-09-03T09:34:42;101720.56;;;21.33;41.36
29941;BME280;16801;53.562;10.038;2022-09-03T09:38:03;101725.53;;;21.30;41.37
29941;BME280;16801;53.562;10.038;2022-09-03T09:41:25;101708.09;;;21.08;40.97
29941;BME280;16801;53.562;10.038;2022-09-03T09:44:47;101722.13;;;21.28;41.04
29941;BME280;16801;53.562;10.038;2022-09-03T09:48:14;101705.47;;;21.52;39.16
29941;BME280;16801;53.562;10.038;2022-09-03T09:51:37;101702.38;;;21.32;39.65
29941;BME280;16801;53.562;10.038;2022-09-03T09:55:07;101706.75;;;21.41;38.96
29941;BME280;16801;53.562;10.038;2022-09-03T09:58:31;101712.50;;;21.69;38.28
29941;BME280;16801;53.562;10.038;2022-09-03T10:02:03;101712.03;;;21.95;37.98
29941;BME280;16801;53.562;10.038;2022-09-03T10:05:29;101701.34;;;21.85;36.94
29941;BME280;16801;53.562;10.038;2022-09-03T10:09:03;101696.50;;;22.02;36.24
29941;BME280;16801;53.562;10.038;2022-09-03T10:12:28;101702.66;;;21.89;36.26
29941;BME280;16801;53.562;10.038;2022-09-03T10:15:56;101694.44;;;22.04;36.26
29941;BME280;16801;53.562;10.038;2022-09-03T10:19:21;101691.69;;;22.04;36.01
29941;BME280;16801;53.562;10.038;2022-09-03T10:22:47;101691.69;;;21.89;35.84
29941;BME280;16801;53.562;10.038;2022-09-03T10:26:13;101695.53;;;22.24;35.76
29941;BME280;16801;53.562;10.038;2022-09-03T10:29:37;101689.38;;;22.58;35.82
29941;BME280;16801;53.562;10.038;2022-09-03T10:33:07;101683.06;;;22.78;34.91
29941;BME280;16801;53.562;10.038;2022-09-03T10:36:35;101687.59;;;22.65;36.21
29941;BME280;16801;53.562;10.038;2022-09-03T10:40:16;101671.19;;;22.92;35.02
29941;BME280;16801;53.562;10.038;2022-09-03T10:43:54;101673.44;;;22.89;35.73
29941;BME280;16801;53.562;10.038;2022-09-03T10:47:32;101673.28;;;23.18;33.28
29941;BME280;16801;53.562;10.038;2022-09-03T10:50:59;101678.91;;;23.31;33.31
29941;BME280;16801;53.562;10.038;2022-09-03T10:54:33;101662.59;;;23.02;34.15
29941;BME280;16801;53.562;10.038;2022-09-03T10:58:09;101676.13;;;23.87;34.01
29941;BME280;16801;53.562;10.038;2022-09-03T11:01:37;101666.03;;;24.34;33.36
29941;BME280;16801;53.562;10.038;2022-09-03T11:05:05;101650.00;;;23.69;32.77
29941;BME280;16801;53.562;10.038;2022-09-03T11:08:33;101648.78;;;24.19;32.05
29941;BME280;16801;53.562;10.038;2022-09-03T11:11:58;101665.97;;;25.08;30.59
29941;BME280;16801;53.562;10.038;2022-09-03T11:15:24;101657.06;;;25.19;30.23
29941;BME280;16801;53.562;10.038;2022-09-03T11:18:50;101653.81;;;25.81;29.42
29941;BME280;16801;53.562;10.038;2022-09-03T11:22:14;101657.72;;;24.95;29.64
29941;BME280;16801;53.562;10.038;2022-09-03T11:25:41;101636.47;;;29.80;23.18
29941;BME280;16801;53.562;10.038;2022-09-03T11:29:07;101639.16;;;33.64;19.49
29941;BME280;16801;53.562;10.038;2022-09-03T11:32:43;101629.22;;;30.19;22.50
29941;BME280;16801;53.562;10.038;2022-09-03T11:36:07;101640.94;;;27.44;25.08
29941;BME280;16801;53.562;10.038;2022-09-03T11:39:33;101639.94;;;26.51;26.97
29941;BME280;16801;53.562;10.038;2022-09-03T11:43:04;101646.06;;;24.32;29.77
29941;BME280;16801;53.562;10.038;2022-09-03T11:46:28;101640.66;;;31.35;21.58
29941;BME280;16801;53.562;10.038;2022-09-03T11:49:51;101625.44;;;30.65;21.26
29941;BME280;16801;53.562;10.038;2022-09-03T11:53:23;101631.28;;;27.53;24.55
29941;BME280;16801;53.562;10.038;2022-09-03T11:56:46;101623.13;;;26.02;26.92
29941;BME280;16801;53.562;10.038;2022-09-03T12:00:13;101625.50;;;28.98;23.07
29941;BME280;16801;53.562;10.038;2022-09-03T12:03:42;101617.16;;;30.53;21.23
29941;BME280;16801;53.562;10.038;2022-09-03T12:07:32;101621.56;;;32.25;20.13
29941;BME280;16801;53.562;10.038;2022-09-03T12:11:05;101620.56;;;31.50;20.73
29941;BME280;16801;53.562;10.038;2022-09-03T12:14:39;101620.53;;;31.00;21.30
29941;BME280;16801;53.562;10.038;2022-09-03T12:18:08;101606.63;;;29.53;21.75
29941;BME280;16801;53.562;10.038;2022-09-03T12:21:41;101611.44;;;32.19;20.01
29941;BME280;16801;53.562;10.038;2022-09-03T12:25:07;101620.09;;;31.58;20.45
29941;BME280;16801;53.562;10.038;2022-09-03T12:28:29;101625.28;;;32.79;19.60
29941;BME280;16801;53.562;10.038;2022-09-03T12:31:52;101620.16;;;31.63;19.81
29941;BME280;16801;53.562;10.038;2022-09-03T12:35:18;101602.47;;;32.39;19.54
29941;BME280;16801;53.562;10.038;2022-09-03T12:38:39;101603.19;;;33.10;18.76
29941;BME280;16801;53.562;10.038;2022-09-03T12:42:03;101608.47;;;32.26;19.50
29941;BME280;16801;53.562;10.038;2022-09-03T12:45:25;101602.72;;;30.56;20.69
29941;BME280;16801;53.562;10.038;2022-09-03T12:48:52;101602.41;;;31.14;20.14
29941;BME280;16801;53.562;10.038;2022-09-03T12:52:17;101599.63;;;32.56;19.08
29941;BME280;16801;53.562;10.038;2022-09-03T12:55:42;101587.84;;;32.27;18.58
29941;BME280;16801;53.562;10.038;2022-09-03T12:59:08;101589.13;;;34.40;17.25
29941;BME280;16801;53.562;10.038;2022-09-03T13:02:38;101578.41;;;33.18;18.14
29941;BME280;16801;53.562;10.038;2022-09-03T13:06:07;101577.63;;;29.14;22.75
29941;BME280;16801;53.562;10.038;2022-09-03T13:09:33;101571.69;;;33.19;18.37
29941;BME280;16801;53.562;10.038;2022-09-03T13:12:58;101574.38;;;35.15;17.23
29941;BME280;16801;53.562;10.038;2022-09-03T13:16:54;101571.97;;;32.33;18.78
29941;BME280;16801;53.562;10.038;2022-09-03T13:20:43;101572.28;;;32.94;18.65
29941;BME280;16801;53.562;10.038;2022-09-03T13:24:41;101577.53;;;31.46;19.50
29941;BME280;16801;53.562;10.038;2022-09-03T13:28:13;101564.94;;;33.52;18.07
29941;BME280;16801;53.562;10.038;2022-09-03T13:31:46;101574.63;;;32.71;18.75
29941;BME280;16801;53.562;10.038;2022-09-03T13:35:12;101566.16;;;33.71;18.48
29941;BME280;16801;53.562;10.038;2022-09-03T13:38:40;101568.69;;;33.77;18.32
29941;BME280;16801;53.562;10.038;2022-09-03T13:42:10;101561.38;;;33.71;18.13
29941;BME280;16801;53.562;10.038;2022-09-03T13:45:36;101582.34;;;31.50;19.16
29941;BME280;16801;53.562;10.038;2022-09-03T13:49:05;101576.34;;;31.42;19.23
29941;BME280;16801;53.562;10.038;2022-09-03T13:52:48;101575.31;;;31.65;19.11
29941;BME280;16801;53.562;10.038;2022-09-03T13:56:21;101560.81;;;29.55;21.55
29941;BME280;16801;53.562;10.038;2022-09-03T13:59:50;101567.22;;;29.79;21.60
29941;BME280;16801;53.562;10.038;2022-09-03T14:03:22;101561.28;;;32.03;19.78
29941;BME280;16801;53.562;10.038;2022-09-03T14:06:52;101557.34;;;33.05;18.08
29941;BME280;16801;53.562;10.038;2022-09-03T14:10:21;101578.41;;;32.33;18.31
29941;BME280;16801;53.562;10.038;2022-09-03T14:13:59;101573.16;;;28.60;22.65
29941;BME280;16801;53.562;10.038;2022-09-03T14:17:31;101557.06;;;29.03;22.13
29941;BME280;16801;53.562;10.038;2022-09-03T14:20:58;101548.59;;;30.36;20.41
29941;BME280;16801;53.562;10.038;2022-09-03T14:24:25;101545.94;;;28.92;22.52
29941;BME280;16801;53.562;10.038;2022-09-03T14:27:47;101547.78;;;30.35;20.60
29941;BME280;16801;53.562;10.038;2022-09-03T14:31:14;101547.31;;;28.18;23.26
29941;BME280;16801;53.562;10.038;2022-09-03T14:34:49;101534.38;;;26.79;24.52
29941;BME280;16801;53.562;10.038;2022-09-03T14:38:40;101538.75;;;27.36;24.94
29941;BME280;16801;53.562;10.038;2022-09-03T14:42:27;101545.22;;;28.96;22.98
29941;BME280;16801;53.562;10.038;2022-09-03T14:46:02;101552.66;;;27.84;23.75
29941;BME280;16801;53.562;10.038;2022-09-03T14:49:49;101547.84;;;27.97;24.37
29941;BME280;16801;53.562;10.038;2022-09-03T14:53:24;101555.84;;;27.51;23.81
29941;BME280;16801;53.562;10.038;2022-09-03T14:56:49;101556.81;;;27.20;24.36
29941;BME280;16801;53.562;10.038;2022-09-03T15:00:17;101542.03;;;26.52;24.95
29941;BME280;16801;53.562;10.038;2022-09-03T15:03:59;101539.75;;;26.49;26.03
29941;BME280;16801;53.562;10.038;2022-09-03T15:07:31;101555.31;;;27.42;25.77
29941;BME280;16801;53.562;10.038;2022-09-03T15:10:56;101544.72;;;27.33;24.55
29941;BME280;16801;53.562;10.038;2022-09-03T15:14:23;101547.69;;;27.38;24.65
29941;BME280;16801;53.562;10.038;2022-09-03T15:17:54;101545.97;;;27.73;24.20
29941;BME280;16801;53.562;10.038;2022-09-03T15:21:24;101532.38;;;27.72;24.02
29941;BME280;16801;53.562;10.038;2022-09-03T15:24:53;101539.59;;;27.73;24.82
29941;BME280;16801;53.562;10.038;2022-09-03T15:28:23;101547.09;;;27.11;24.67
29941;BME280;16801;53.562;10.038;2022-09-03T15:31:53;101539.78;;;27.17;25.40
29941;BME280;16801;53.562;10.038;2022-09-03T15:35:33;101545.63;;;27.27;25.08
29941;BME280;16801;53.562;10.038;2022-09-03T15:38:59;101555.44;;;27.47;24.54
29941;BME280;16801;53.562;10.038;2022-09-03T15:42:25;101550.56;;;27.25;25.17
29941;BME280;16801;53.562;10.038;2022-09-03T15:45:52;101551.16;;;27.51;24.88
29941;BME280;16801;53.562;10.038;2022-09-03T15:49:22;101552.47;;;27.67;24.40
29941;BME280;16801;53.562;10.038;2022-09-03T15:52:54;101547.72;;;27.31;24.88
29941;BME280;16801;53.562;10.038;2022-09-03T15:56:20;101554.19;;;27.25;24.86
29941;BME280;16801;53.562;10.038;2022-09-03T15:59:51;101545.19;;;27.30;24.90
29941;BME280;16801;53.562;10.038;2022-09-03T16:03:18;101545.91;;;27.01;25.12
29941;BME280;16801;53.562;10.038;2022-09-03T16:06:49;101546.41;;;27.16;25.14
29941;BME280;16801;53.562;10.038;2022-09-03T16:10:15;101552.78;;;26.67;25.79
29941;BME280;16801;53.562;10.038;2022-09-03T16:13:44;101552.94;;;27.03;25.87
29941;BME280;16801;53.562;10.038;2022-09-03T16:17:20;101558.28;;;26.98;25.65
29941;BME280;16801;53.562;10.038;2022-09-03T16:20:48;101566.06;;;26.83;25.51
29941;BME280;16801;53.562;10.038;2022-09-03T16:24:16;101560.78;;;26.81;25.90
29941;BME280;16801;53.562;10.038;2022-09-03T16:27:41;101557.50;;;26.60;26.24
29941;BME280;16801;53.562;10.038;2022-09-03T16:31:16;101562.22;;;26.28;26.51
29941;BME280;16801;53.562;10.038;2022-09-03T16:34:49;101563.03;;;26.60;26.26
29941;BME280;16801;53.562;10.038;2022-09-03T16:38:27;101557.97;;;26.26;26.54
29941;BME280;16801;53.562;10.038;2022-09-03T16:41:58;101554.22;;;26.07;26.66
29941;BME280;16801;53.562;10.038;2022-09-03T16:45:27;101549.16;;;25.97;27.23
29941;BME280;16801;53.562;10.038;2022-09-03T16:49:06;101556.75;;;25.64;27.13
29941;BME280;16801;53.562;10.038;2022-09-03T16:52:40;101558.50;;;25.52;27.35
29941;BME280;16801;53.562;10.038;2022-09-03T17:00:00;101565.75;;;25.47;27.91
29941;BME280;16801;53.562;10.038;2022-09-03T17:03:43;101556.19;;;25.16;28.33
29941;BME280;16801;53.562;10.038;2022-09-03T17:07:14;101570.25;;;24.82;28.61
29941;BME280;16801;53.562;10.038;2022-09-03T17:10:45;101562.56;;;24.38;29.64
29941;BME280;16801;53.562;10.038;2022-09-03T17:14:24;101567.56;;;24.09;29.57
29941;BME280;16801;53.562;10.038;2022-09-03T17:18:02;101573.22;;;23.94;29.86
29941;BME280;16801;53.562;10.038;2022-09-03T17:21:36;101568.13;;;23.98;30.09
29941;BME280;16801;53.562;10.038;2022-09-03T17:25:07;101561.06;;;23.75;30.40
29941;BME280;16801;53.562;10.038;2022-09-03T17:28:48;101569.03;;;23.64;31.05
29941;BME280;16801;53.562;10.038;2022-09-03T17:32:24;101571.06;;;23.42;31.62
29941;BME280;16801;53.562;10.038;2022-09-03T17:35:58;101574.63;;;23.43;31.98
29941;BME280;16801;53.562;10.038;2022-09-03T17:43:17;101577.25;;;23.23;32.27
29941;BME280;16801;53.562;10.038;2022-09-03T17:46:46;101595.81;;;23.15;32.58
29941;BME280;16801;53.562;10.038;2022-09-03T17:50:16;101594.28;;;22.84;32.88
29941;BME280;16801;53.562;10.038;2022-09-03T17:53:44;101599.53;;;22.79;32.53
29941;BME280;16801;53.562;10.038;2022-09-03T17:57:14;101603.91;;;22.74;33.38